Terminal Aerodrome Forecast
Issued by NWS Brownsville, TX

Home | Current Version | Previous Version | Text Only | Print | Product List | Glossary On
Versions: 1 2 3 4 5 6 7 8 9 10 11 12 13 14 15 16 17 18 19 20 21 22 23 24 25
000
FTUS44 KBRO 022330
TAFBRO
TAF
KBRO 022330Z 0300/0324 34011G18KT P6SM OVC030
     FM030230 34009KT P6SM OVC030
     FM031100 35006KT P6SM OVC020
     FM031800 36010KT P6SM BKN035=

USA.gov is the U.S. government's official web portal to all federal, state and local government web resources and services.